Huntsville, TX (77320)

11:50 PM CST on November 22, 2014 (GMT -0600)
Huntsville Municipal | Change Station
CLOSE
Current Station
Airport
Location: Huntsville,
Elevation: 364 ft
Nearby Weather Stations

Elev 364 ft 30.74 °N, 95.59 °W | Updated 57 minutes ago

Rain
Rain
66 °F
Feels Like 66 °F
N
10
Wind Variable Wind from SSE
Gusts 22 mph

Today
High -- | Low -- °F
--% Chance of Precip.
Yesterday
High -- | Low -- °F
Precip. -- in
6:54 AM 5:21 PM
New Moon, 1% visible
Pressure 29.73 in
Visibility 4.0 miles
Clouds Scattered Clouds 1400 ft
Mostly Cloudy 4500 ft
Overcast 11000 ft
Dew Point 63 °F
Humidity 90%
Rainfall 1.48 in
Snow Depth Not available.
UV 0 out of 12
Pollen .80 out of 12
Air Quality Not available.
Flu Activity Not available.
METAR KUTS 230453Z AUTO 15009G19KT 110V180 4SM RA BR SCT014 BKN045 OVC110 19/17 A2974 RMK AO2 LTG DSNT NW RAB44 SLP068 P0004 T01890172

More Conditions Fewer Conditions

Pressure 29.73 in
Visibility 4.0 miles
Clouds Scattered Clouds 1400 ft
Mostly Cloudy 4500 ft
Overcast 11000 ft
Dew Point 63 °F
Humidity 90%
Rainfall 1.48 in
Snow Depth Not available.
UV 0 out of 12
Pollen .80 out of 12
Air Quality Not available.
Flu Activity Not available.
METAR KUTS 230453Z AUTO 15009G19KT 110V180 4SM RA BR SCT014 BKN045 OVC110 19/17 A2974 RMK AO2 LTG DSNT NW RAB44 SLP068 P0004 T01890172

More Conditions Fewer Conditions

10-Day Weather Forecast

Almanac

Astronomy

Nov. 22, 2014 Rise Set
Actual Time
Civil Twilight
Nautical Twilight
Astronomical Twilight
Moon
Length of Visible Light
Length of Day
Tomorrow will be .
, % of the Moon is Illuminated

Today's Extremes

State Highs State Lows

Community

WunderPhotos

Upload Photos

1,773,017 photos uploaded!

WunderBlogs® & News

Nearby

Air Quality

  Air Quality AQ Index Pollutant
Not available.

Snow Depth

Station Depth Elevation

Earthquake Activity

City Distance Mag. Time & Date
Minimum magnitude displayed is 2.5.

Coastal Water Temperatures

Place Temperature

Nearby Weather Stations